Time;durP1;ratioP1;P1;durP2;ratioP2;P2;SDS_P1;SDS_P2;PMS_P1;PMS_P2;Temp;Humidity;BMP_temperature;BMP_pressure;BME280_temperature;BME280_humidity;BME280_pressure;Samples;Min_cycle;Max_cycle;Signal;HPM_P1;HPM_P2
2023/05/18 00:00:13;;;;;;;10.10;7.30;;;;;;;23.69;40.54;99521.31;106546;1247;63050;-69
2023/05/18 00:02:41;;;;;;;12.60;7.90;;;;;;;23.52;41.19;99520.58;106484;1249;62026;-70
2023/05/18 00:05:11;;;;;;;10.20;7.60;;;;;;;21.93;43.65;99510.64;106026;1247;76065;-71
2023/05/18 00:07:39;;;;;;;11.70;7.30;;;;;;;16.52;65.06;99483.63;106541;1248;69600;-70
2023/05/18 00:10:08;;;;;;;9.80;7.50;;;;;;;16.25;69.84;99483.81;106551;1250;72198;-68
2023/05/18 00:12:36;;;;;;;12.10;7.60;;;;;;;16.18;71.81;99485.05;106476;1248;62149;-68
2023/05/18 00:15:04;;;;;;;12.20;7.80;;;;;;;16.61;71.42;99482.48;106593;1245;62050;-69
2023/05/18 00:17:31;;;;;;;13.10;8.30;;;;;;;16.32;72.28;99478.72;106060;1253;76158;-67
2023/05/18 00:19:58;;;;;;;10.40;7.40;;;;;;;17.28;68.55;99481.99;106164;1250;68735;-69
2023/05/18 00:22:25;;;;;;;23.40;8.30;;;;;;;18.39;61.15;99486.43;106598;1250;72653;-68
2023/05/18 00:24:52;;;;;;;11.80;7.90;;;;;;;18.08;62.30;99489.05;106572;1248;62040;-68
2023/05/18 00:27:20;;;;;;;10.30;7.50;;;;;;;19.24;56.15;99495.63;106517;1248;62125;-68
2023/05/18 00:29:47;;;;;;;10.30;7.70;;;;;;;18.88;56.32;99489.13;105980;1253;75888;-70
2023/05/18 00:32:14;;;;;;;10.30;7.90;;;;;;;17.37;65.02;99482.77;106121;1251;69274;-69
2023/05/18 00:34:41;;;;;;;10.90;7.70;;;;;;;16.87;68.84;99474.65;106522;1248;73025;-69
2023/05/18 00:37:07;;;;;;;10.30;7.00;;;;;;;17.64;65.84;99479.98;106252;1245;62152;-68
2023/05/18 00:39:34;;;;;;;13.60;7.50;;;;;;;18.06;62.82;99482.02;106464;1246;63399;-68
2023/05/18 00:42:02;;;;;;;9.80;7.20;;;;;;;17.87;63.84;99479.44;106276;1251;75664;-69
2023/05/18 00:44:29;;;;;;;8.80;7.20;;;;;;;18.29;61.41;99483.38;106531;1251;68115;-67
2023/05/18 00:46:56;;;;;;;7.60;6.80;;;;;;;18.00;62.75;99477.27;106492;1245;73433;-68
2023/05/18 00:49:23;;;;;;;8.50;7.20;;;;;;;18.35;60.64;99483.72;106558;1245;62163;-71
2023/05/18 00:51:50;;;;;;;10.30;7.40;;;;;;;17.92;62.76;99480.35;106168;1245;62127;-69
2023/05/18 00:54:18;;;;;;;13.20;7.90;;;;;;;18.57;59.65;99486.14;106556;1250;74978;-69
2023/05/18 00:56:45;;;;;;;9.30;6.90;;;;;;;17.47;64.51;99479.01;106365;1245;68415;-69
2023/05/18 00:59:12;;;;;;;11.50;6.50;;;;;;;18.62;59.08;99486.30;106471;1251;71991;-70
2023/05/18 01:01:42;;;;;;;8.70;7.00;;;;;;;19.10;55.52;99489.87;106483;1244;62088;-69
2023/05/18 01:04:12;;;;;;;8.40;6.60;;;;;;;19.50;53.30;99493.09;106597;1248;62208;-68
2023/05/18 01:06:41;;;;;;;6.90;6.20;;;;;;;19.22;53.79;99490.52;106679;1250;75514;-70
2023/05/18 01:09:10;;;;;;;13.70;6.30;;;;;;;18.30;58.20;99488.66;106593;1251;68935;-68
2023/05/18 01:12:11;;;;;;;11.20;5.40;;;;;;;18.73;55.47;99493.88;106605;1244;73580;-67
2023/05/18 01:14:49;;;;;;;8.60;5.80;;;;;;;16.82;65.42;99485.34;106524;1248;62031;-69
2023/05/18 01:17:41;;;;;;;9.30;6.40;;;;;;;16.61;67.67;99481.33;106635;1246;62076;-69
2023/05/18 01:20:14;;;;;;;15.30;6.20;;;;;;;16.87;66.37;99484.58;106452;1250;75254;-69
2023/05/18 01:22:49;;;;;;;10.60;6.20;;;;;;;17.36;64.47;99485.29;106520;1249;67943;-69
2023/05/18 01:25:35;;;;;;;9.70;5.90;;;;;;;17.24;64.93;99486.59;106589;1248;72392;-69
2023/05/18 01:28:08;;;;;;;12.30;6.00;;;;;;;18.27;58.78;99497.69;106435;1250;62143;-69
2023/05/18 01:30:39;;;;;;;7.00;5.90;;;;;;;18.91;54.96;99502.41;106483;1248;62182;-69
2023/05/18 01:33:08;;;;;;;9.00;5.60;;;;;;;19.37;52.67;99507.10;106482;1246;76543;-68
2023/05/18 01:35:35;;;;;;;10.70;5.80;;;;;;;19.44;51.90;99506.55;106547;1248;68421;-68
2023/05/18 01:38:03;;;;;;;10.20;5.70;;;;;;;19.56;51.21;99506.13;106573;1244;72751;-70
2023/05/18 01:40:32;;;;;;;7.50;6.00;;;;;;;19.82;50.30;99507.48;106587;1248;62021;-69
2023/05/18 01:43:02;;;;;;;8.40;5.80;;;;;;;19.88;50.06;99511.13;106570;1248;63028;-70
2023/05/18 01:45:29;;;;;;;6.80;5.50;;;;;;;20.07;49.48;99517.63;106567;1245;74095;-72
2023/05/18 01:47:58;;;;;;;12.60;5.70;;;;;;;19.98;49.69;99514.15;106427;1246;67243;-72
2023/05/18 01:50:30;;;;;;;11.90;5.90;;;;;;;20.05;49.41;99512.16;106417;1247;71449;-71
2023/05/18 01:53:05;;;;;;;11.30;6.10;;;;;;;20.04;49.53;99519.10;106526;1247;62191;-70
2023/05/18 01:55:33;;;;;;;12.00;5.60;;;;;;;19.94;49.79;99518.34;106557;1244;62050;-70
2023/05/18 01:58:00;;;;;;;8.70;5.80;;;;;;;20.10;49.00;99521.81;106450;1250;76379;-68
2023/05/18 02:00:27;;;;;;;9.10;5.70;;;;;;;20.14;48.86;99521.04;106204;1244;68815;-70
2023/05/18 02:02:54;;;;;;;11.40;5.90;;;;;;;20.26;48.40;99519.38;106451;1245;73251;-70
2023/05/18 02:05:22;;;;;;;9.70;6.40;;;;;;;20.37;48.12;99525.25;106268;1244;62143;-70
2023/05/18 02:07:49;;;;;;;13.30;7.00;;;;;;;20.48;47.85;99527.30;106553;1244;62014;-70
2023/05/18 02:10:16;;;;;;;13.40;6.40;;;;;;;20.55;47.44;99526.42;106537;1248;75382;-70
2023/05/18 02:12:47;;;;;;;8.00;6.20;;;;;;;20.60;47.28;99531.60;106585;1244;68150;-72
2023/05/18 02:15:14;;;;;;;10.50;5.80;;;;;;;20.47;47.64;99535.52;106554;1244;72952;-71
2023/05/18 02:17:42;;;;;;;10.50;6.30;;;;;;;20.43;47.87;99530.80;106544;1244;63139;-70
2023/05/18 02:20:09;;;;;;;10.80;6.30;;;;;;;20.38;47.95;99532.05;106552;1244;62029;-70
2023/05/18 02:22:36;;;;;;;15.50;6.20;;;;;;;20.43;48.02;99536.08;106578;1249;75443;-70
2023/05/18 02:25:06;;;;;;;11.10;6.40;;;;;;;20.63;47.51;99538.98;106238;1248;69509;-70
2023/05/18 02:27:34;;;;;;;8.20;6.00;;;;;;;20.64;47.39;99537.48;106473;1250;70995;-69
2023/05/18 02:30:07;;;;;;;8.90;5.90;;;;;;;20.65;47.27;99538.44;106577;1248;62063;-71
2023/05/18 02:32:37;;;;;;;8.60;6.10;;;;;;;20.71;47.36;99538.81;107550;1252;62044;-71
2023/05/18 02:35:07;;;;;;;13.00;6.60;;;;;;;20.60;47.61;99540.48;108040;1245;75976;-71
2023/05/18 02:37:38;;;;;;;11.50;6.50;;;;;;;20.89;47.08;99537.94;106688;1245;68990;-71
2023/05/18 02:40:11;;;;;;;15.20;6.50;;;;;;;21.01;46.58;99541.42;106554;1249;72770;-74
2023/05/18 02:42:39;;;;;;;15.20;6.80;;;;;;;20.88;47.14;99545.44;106455;1247;62143;-71
2023/05/18 02:45:07;;;;;;;9.30;7.10;;;;;;;20.80;47.42;99546.34;106611;1248;62057;-70
2023/05/18 02:47:34;;;;;;;12.40;7.30;;;;;;;20.73;47.62;99547.23;106534;1247;75214;-70
2023/05/18 02:50:01;;;;;;;14.20;7.90;;;;;;;20.91;47.30;99550.03;106499;1247;68095;-69
2023/05/18 02:52:29;;;;;;;21.20;7.30;;;;;;;20.78;47.52;99549.78;106475;1251;73637;-69
2023/05/18 02:54:56;;;;;;;11.10;7.30;;;;;;;20.71;47.88;99546.88;105996;1254;62741;-68
2023/05/18 02:57:36;;;;;;;10.30;6.90;;;;;;;20.87;47.27;99552.77;106092;1252;63356;-69
2023/05/18 03:00:10;;;;;;;8.50;6.70;;;;;;;20.92;46.96;99554.36;106517;1248;75845;-70
2023/05/18 03:02:39;;;;;;;12.70;7.30;;;;;;;21.01;46.84;99555.45;106564;1245;69561;-70
2023/05/18 03:05:07;;;;;;;13.50;7.80;;;;;;;21.17;46.45;99558.98;106673;1248;71813;-69
2023/05/18 03:07:34;;;;;;;22.80;8.00;;;;;;;21.14;46.56;99561.08;106484;1244;62118;-69
2023/05/18 03:10:06;;;;;;;11.40;7.10;;;;;;;20.95;46.86;99558.40;106611;1248;62081;-70
2023/05/18 03:12:33;;;;;;;13.90;7.20;;;;;;;20.90;47.07;99561.52;106527;1245;73923;-70
2023/05/18 03:15:00;;;;;;;16.00;7.90;;;;;;;20.83;47.51;99562.17;106438;1247;68691;-69
2023/05/18 03:17:29;;;;;;;9.70;7.20;;;;;;;20.87;47.59;99558.25;106483;1250;73362;-69
2023/05/18 03:19:56;;;;;;;11.00;7.50;;;;;;;20.73;48.08;99559.77;106440;1247;62156;-70
2023/05/18 03:22:23;;;;;;;16.70;7.30;;;;;;;20.85;47.80;99562.84;106229;1247;62008;-70
2023/05/18 03:24:50;;;;;;;14.90;7.10;;;;;;;20.87;47.78;99562.94;106522;1249;75466;-70
2023/05/18 03:27:21;;;;;;;10.80;7.30;;;;;;;17.40;61.29;99545.16;106492;1249;68523;-69
2023/05/18 03:29:49;;;;;;;9.40;7.10;;;;;;;16.54;69.26;99545.31;106461;1248;72765;-70
2023/05/18 03:32:16;;;;;;;12.90;6.80;;;;;;;16.94;69.12;99542.87;106440;1246;62099;-71
2023/05/18 03:34:46;;;;;;;8.40;6.50;;;;;;;18.43;60.97;99548.15;106533;1251;63060;-73
2023/05/18 03:37:14;;;;;;;11.20;7.70;;;;;;;19.03;57.00;99551.69;106242;1253;76488;-74
2023/05/18 03:39:41;;;;;;;11.10;7.60;;;;;;;19.29;55.73;99557.55;106623;1247;68822;-71
2023/05/18 03:42:08;;;;;;;11.80;7.20;;;;;;;19.21;56.10;99553.88;106526;1247;73903;-69
2023/05/18 03:44:35;;;;;;;11.00;6.70;;;;;;;19.30;55.58;99557.81;106545;1249;62070;-70
2023/05/18 03:47:02;;;;;;;8.30;7.00;;;;;;;19.40;55.10;99558.02;106532;1249;62073;-68
2023/05/18 03:49:32;;;;;;;12.90;7.50;;;;;;;19.64;53.64;99566.02;106409;1250;76122;-70
2023/05/18 03:52:01;;;;;;;9.30;6.90;;;;;;;19.74;53.20;99570.12;106523;1249;66694;-71
2023/05/18 03:54:29;;;;;;;9.70;6.50;;;;;;;19.74;53.09;99572.72;106385;1247;71998;-70
2023/05/18 03:56:56;;;;;;;8.00;6.30;;;;;;;18.36;59.40;99564.45;106515;1246;63052;-68
2023/05/18 03:59:23;;;;;;;11.30;6.40;;;;;;;18.64;58.75;99568.23;106509;1249;62082;-72
2023/05/18 04:01:52;;;;;;;13.70;6.40;;;;;;;18.29;60.67;99565.29;106509;1249;74774;-68
2023/05/18 04:04:21;;;;;;;12.20;6.40;;;;;;;17.66;64.34;99565.17;106506;1247;68816;-69
2023/05/18 04:06:50;;;;;;;15.30;6.40;;;;;;;17.42;66.57;99563.33;106125;1251;72773;-69
2023/05/18 04:09:17;;;;;;;;;;;;;;;18.59;60.59;99573.96;106235;1252;64400;-68
2023/05/18 04:11:44;;;;;;;9.90;7.70;;;;;;;19.08;57.98;99578.09;106564;1247;62138;-69
2023/05/18 04:14:12;;;;;;;11.20;6.10;;;;;;;19.31;56.14;99580.64;106524;1246;74648;-71
2023/05/18 04:16:40;;;;;;;9.90;6.40;;;;;;;19.54;54.37;99577.04;106574;1250;68717;-70
2023/05/18 04:19:07;;;;;;;14.30;7.00;;;;;;;19.77;53.19;99583.17;106712;1244;71945;-71
2023/05/18 04:21:36;;;;;;;12.00;7.20;;;;;;;19.87;52.70;99589.59;106558;1246;62114;-76
2023/05/18 04:24:04;;;;;;;10.70;7.00;;;;;;;19.94;53.14;99595.55;106586;1246;63152;-70
2023/05/18 04:26:37;;;;;;;11.10;7.10;;;;;;;20.17;51.73;99602.48;106575;1250;75028;-72
2023/05/18 04:29:06;;;;;;;13.80;8.70;;;;;;;20.16;51.86;99604.46;106538;1249;67284;-70
2023/05/18 04:31:34;;;;;;;19.10;6.20;;;;;;;20.21;52.08;99607.11;106609;1244;73921;-70
2023/05/18 04:34:01;;;;;;;17.30;7.10;;;;;;;20.44;50.88;99601.48;106593;1248;62110;-70
2023/05/18 04:36:33;;;;;;;16.80;7.00;;;;;;;20.63;50.15;99601.59;106498;1244;62412;-70
2023/05/18 04:39:06;;;;;;;17.40;8.00;;;;;;;20.86;49.44;99606.62;106598;1249;75190;-70
2023/05/18 04:41:34;;;;;;;20.60;6.60;;;;;;;21.00;48.59;99614.29;106523;1248;68142;-71
2023/05/18 04:44:02;;;;;;;20.30;7.30;;;;;;;21.09;47.95;99614.56;106118;1251;72612;-69
2023/05/18 04:46:29;;;;;;;;;;;;;;;21.13;47.85;99617.20;106493;1245;63157;-71
2023/05/18 04:48:56;;;;;;;16.10;6.20;;;;;;;21.18;47.80;99616.70;106190;1251;62113;-75
2023/05/18 04:51:23;;;;;;;14.50;6.80;;;;;;;21.17;47.53;99623.14;106451;1250;74716;-70
2023/05/18 04:53:51;;;;;;;21.70;7.50;;;;;;;21.18;47.66;99626.06;106550;1246;68532;-70
2023/05/18 04:56:22;;;;;;;14.20;7.40;;;;;;;21.48;46.99;99622.69;106538;1245;73676;-70
2023/05/18 04:58:49;;;;;;;20.80;7.60;;;;;;;21.57;46.53;99626.75;106419;1250;62091;-70
2023/05/18 05:01:17;;;;;;;20.10;7.20;;;;;;;21.69;46.43;99629.27;106519;1247;62041;-70
2023/05/18 05:03:44;;;;;;;21.00;7.60;;;;;;;20.39;49.89;99621.18;106446;1246;74713;-71
2023/05/18 05:06:11;;;;;;;29.80;7.20;;;;;;;19.69;53.78;99622.63;106550;1250;69586;-72
2023/05/18 05:08:38;;;;;;;16.50;6.40;;;;;;;20.27;51.52;99624.98;106465;1249;73531;-71
2023/05/18 05:11:06;;;;;;;13.10;6.40;;;;;;;19.97;52.38;99626.13;106592;1247;62056;-73
2023/05/18 05:13:34;;;;;;;26.30;6.20;;;;;;;19.51;55.65;99624.60;106476;1246;63120;-72
2023/05/18 05:16:02;;;;;;;;;;;;;;;19.56;54.36;99629.63;106719;1244;75801;-73
2023/05/18 05:18:29;;;;;;;37.10;8.40;;;;;;;20.09;52.72;99631.40;106611;1244;69507;-72
2023/05/18 05:20:58;;;;;;;29.40;7.70;;;;;;;20.54;51.09;99630.41;106562;1248;72839;-71
2023/05/18 05:23:26;;;;;;;24.10;7.60;;;;;;;20.95;49.70;99632.77;106590;1244;62126;-72
2023/05/18 05:25:53;;;;;;;45.60;7.80;;;;;;;21.16;48.93;99634.56;106569;1244;62050;-71
2023/05/18 05:28:20;;;;;;;15.60;6.00;;;;;;;21.16;49.42;99635.09;106465;1249;75626;-71
2023/05/18 05:30:47;;;;;;;42.30;7.50;;;;;;;21.27;48.79;99637.05;106599;1247;68853;-70
2023/05/18 05:33:16;;;;;;;17.60;6.90;;;;;;;21.59;47.65;99635.17;106510;1247;73001;-70
2023/05/18 05:35:43;;;;;;;;;;;;;;;22.13;47.41;99638.42;106597;1247;62200;-72
2023/05/18 05:38:10;;;;;;;12.30;5.70;;;;;;;23.11;44.57;99638.80;106260;1248;62255;-72
2023/05/18 05:40:37;;;;;;;11.00;5.50;;;;;;;23.92;42.06;99647.96;106551;1249;75063;-73
2023/05/18 05:43:05;;;;;;;10.00;5.30;;;;;;;24.35;41.04;99648.75;106513;1247;68857;-72
2023/05/18 05:45:32;;;;;;;10.10;6.20;;;;;;;24.99;39.55;99651.48;106477;1249;73267;-72
2023/05/18 05:48:02;;;;;;;10.20;6.00;;;;;;;25.76;37.89;99661.30;106205;1252;62162;-73
2023/05/18 05:50:31;;;;;;;;;;;;;;;25.87;37.60;99657.79;106597;1246;62117;-73
2023/05/18 05:53:00;;;;;;;14.60;5.80;;;;;;;24.68;40.34;99652.32;106298;1246;75699;-71
2023/05/18 05:55:30;;;;;;;7.20;5.40;;;;;;;24.12;42.21;99648.40;106659;1246;69645;-71
2023/05/18 05:57:57;;;;;;;13.60;4.80;;;;;;;24.76;40.83;99648.54;106466;1246;71626;-71
2023/05/18 06:00:26;;;;;;;7.30;3.90;;;;;;;26.26;38.26;99658.23;106458;1248;62111;-71
2023/05/18 06:02:58;;;;;;;8.60;4.00;;;;;;;26.72;37.52;99655.80;106496;1246;62069;-71
2023/05/18 06:05:34;;;;;;;8.70;4.50;;;;;;;26.96;37.32;99663.00;106688;1244;74625;-70
2023/05/18 06:08:03;;;;;;;8.30;4.40;;;;;;;27.58;36.24;99662.90;106679;1245;67846;-70
2023/05/18 06:10:31;;;;;;;6.60;3.80;;;;;;;27.90;35.91;99667.11;106521;1249;73279;-70
2023/05/18 06:12:59;;;;;;;18.40;5.00;;;;;;;28.59;34.82;99671.41;106536;1246;63079;-71
2023/05/18 06:15:38;;;;;;;6.60;4.00;;;;;;;28.68;35.06;99678.08;106681;1246;62118;-70
2023/05/18 06:18:04;;;;;;;12.70;4.30;;;;;;;28.51;34.28;99680.35;106497;1249;76302;-70
2023/05/18 06:20:32;;;;;;;;;;;;;;;28.22;34.31;99678.29;106736;1249;68299;-69
2023/05/18 06:22:59;;;;;;;12.50;3.90;;;;;;;28.41;34.04;99683.48;106658;1246;73433;-69
2023/05/18 06:25:38;;;;;;;10.50;4.60;;;;;;;27.62;35.21;99681.13;106504;1249;62024;-71
2023/05/18 06:28:25;;;;;;;;;;;;;;;26.62;36.50;99674.21;106491;1244;62374;-71
2023/05/18 06:31:17;;;;;;;9.60;3.00;;;;;;;27.34;35.05;99679.88;106699;1249;76662;-70
2023/05/18 06:33:48;;;;;;;7.00;2.90;;;;;;;26.89;34.56;99677.23;106495;1248;68982;-70
2023/05/18 06:36:15;;;;;;;5.50;2.60;;;;;;;28.21;32.39;99681.20;106495;1247;72612;-70
2023/05/18 06:38:44;;;;;;;13.60;3.30;;;;;;;28.33;31.87;99687.86;106737;1248;62023;-70
2023/05/18 06:41:10;;;;;;;8.80;2.50;;;;;;;28.37;31.90;99685.86;106582;1248;62063;-71
2023/05/18 06:43:40;;;;;;;7.30;2.10;;;;;;;28.32;31.54;99687.86;106417;1250;75808;-69
2023/05/18 06:46:30;;;;;;;3.00;1.70;;;;;;;28.90;30.02;99694.56;106564;1244;69323;-71
2023/05/18 06:49:00;;;;;;;5.60;2.00;;;;;;;27.01;32.45;99685.92;106391;1244;72639;-70
2023/05/18 06:51:27;;;;;;;10.70;2.50;;;;;;;27.52;31.43;99687.09;106639;1244;62146;-72
2023/05/18 06:53:56;;;;;;;8.80;2.70;;;;;;;28.31;31.00;99690.27;106749;1244;62034;-72
2023/05/18 06:56:23;;;;;;;5.70;2.20;;;;;;;28.36;30.27;99696.35;106525;1245;73389;-71
2023/05/18 06:58:51;;;;;;;6.30;2.50;;;;;;;28.53;30.22;99695.85;106792;1245;69317;-71
2023/05/18 07:01:18;;;;;;;11.20;2.70;;;;;;;29.13;30.02;99701.20;106692;1244;72121;-70
2023/05/18 07:03:45;;;;;;;2.50;2.10;;;;;;;28.26;30.16;99697.61;106726;1244;62153;-72
2023/05/18 07:06:13;;;;;;;4.60;2.10;;;;;;;28.77;28.97;99700.54;106722;1244;62047;-70
2023/05/18 07:08:40;;;;;;;4.90;1.70;;;;;;;28.92;28.63;99704.75;106763;1245;76229;-71
2023/05/18 07:11:08;;;;;;;4.70;2.40;;;;;;;28.53;27.67;99703.64;106948;1248;69082;-72
2023/05/18 07:13:35;;;;;;;7.30;2.60;;;;;;;28.19;27.61;99699.63;106777;1245;73458;-71
2023/05/18 07:16:02;;;;;;;14.70;3.00;;;;;;;28.22;28.25;99704.70;106666;1249;62020;-72
2023/05/18 07:18:29;;;;;;;12.50;3.20;;;;;;;28.69;27.72;99704.14;106559;1249;62224;-70
2023/05/18 07:20:56;;;;;;;4.30;1.80;;;;;;;29.02;27.50;99703.49;106522;1246;75340;-72
2023/05/18 07:23:23;;;;;;;4.90;2.10;;;;;;;28.82;27.75;99703.43;106588;1249;68742;-69
2023/05/18 07:25:50;;;;;;;2.50;2.00;;;;;;;28.86;27.74;99703.20;106572;1245;73155;-69
2023/05/18 07:28:17;;;;;;;3.40;2.30;;;;;;;29.01;26.83;99708.69;106565;1247;62133;-71
2023/05/18 07:30:44;;;;;;;2.60;1.70;;;;;;;29.06;27.30;99709.71;106684;1248;62135;-69
2023/05/18 07:33:11;;;;;;;10.10;2.30;;;;;;;29.08;26.75;99710.67;106533;1249;75540;-70
2023/05/18 07:35:39;;;;;;;7.10;2.50;;;;;;;29.65;26.69;99716.20;106567;1246;68003;-71
2023/05/18 07:38:06;;;;;;;9.90;2.70;;;;;;;29.66;26.37;99718.58;106501;1249;72769;-71
2023/05/18 07:40:33;;;;;;;6.90;2.50;;;;;;;30.15;26.87;99718.67;106561;1247;62029;-72
2023/05/18 07:43:00;;;;;;;5.70;2.00;;;;;;;30.21;26.50;99717.23;106556;1249;62128;-71
2023/05/18 07:45:26;;;;;;;6.60;2.30;;;;;;;30.15;26.15;99714.01;106470;1247;76249;-72
2023/05/18 07:47:53;;;;;;;2.10;1.20;;;;;;;30.20;26.54;99719.84;106687;1248;69389;-71
2023/05/18 07:50:21;;;;;;;5.90;2.30;;;;;;;30.10;25.87;99725.12;106648;1249;72779;-71
2023/05/18 07:52:48;;;;;;;7.30;2.40;;;;;;;30.07;25.82;99728.56;106646;1245;62034;-70
2023/05/18 07:55:15;;;;;;;3.60;1.70;;;;;;;30.22;25.47;99724.66;106458;1246;62134;-71
2023/05/18 07:57:42;;;;;;;3.20;2.40;;;;;;;30.20;25.62;99720.78;106260;1251;75964;-71
2023/05/18 08:00:10;;;;;;;2.50;1.70;;;;;;;30.25;25.25;99725.02;106494;1246;68722;-68
2023/05/18 08:02:41;;;;;;;3.70;1.80;;;;;;;30.22;25.51;99728.48;106613;1246;73238;-70
2023/05/18 08:05:09;;;;;;;3.60;2.00;;;;;;;30.15;25.96;99729.05;106599;1246;62066;-71
2023/05/18 08:07:37;;;;;;;4.00;2.00;;;;;;;30.23;25.35;99727.45;106154;1246;62134;-71
2023/05/18 08:10:04;;;;;;;4.60;2.10;;;;;;;30.60;25.41;99731.23;106504;1246;75781;-70
2023/05/18 08:12:32;;;;;;;7.10;2.30;;;;;;;30.72;25.68;99728.95;106570;1249;68037;-70
2023/05/18 08:14:59;;;;;;;5.50;2.40;;;;;;;30.50;25.17;99724.83;106027;1246;73058;-71
2023/05/18 08:17:26;;;;;;;11.80;2.30;;;;;;;30.33;25.72;99724.00;106462;1247;62127;-71
2023/05/18 08:19:53;;;;;;;7.40;1.90;;;;;;;30.23;25.27;99725.71;106507;1247;62150;-73
2023/05/18 08:22:20;;;;;;;5.90;1.80;;;;;;;30.07;25.37;99726.52;106510;1249;74838;-72
2023/05/18 08:24:47;;;;;;;11.20;2.60;;;;;;;29.84;25.40;99730.56;106550;1246;68725;-69
2023/05/18 08:27:14;;;;;;;8.00;2.40;;;;;;;29.95;25.36;99728.05;106451;1247;71781;-70
2023/05/18 08:29:41;;;;;;;5.00;2.10;;;;;;;30.15;25.45;99722.71;106615;1249;62163;-69
2023/05/18 08:32:08;;;;;;;3.00;1.80;;;;;;;30.26;24.98;99726.36;106510;1246;62058;-71
2023/05/18 08:34:35;;;;;;;3.70;2.00;;;;;;;30.48;25.15;99724.59;106728;1249;75266;-68
2023/05/18 08:37:02;;;;;;;6.30;2.50;;;;;;;30.19;25.03;99721.88;106610;1248;67272;-69
2023/05/18 08:39:31;;;;;;;3.70;1.90;;;;;;;29.98;24.88;99725.64;106617;1244;73802;-70
2023/05/18 08:42:02;;;;;;;7.50;2.00;;;;;;;29.85;24.83;99728.20;106602;1248;62063;-70
2023/05/18 08:44:37;;;;;;;4.80;1.90;;;;;;;30.14;24.66;99729.02;106603;1245;62021;-71
2023/05/18 08:47:08;;;;;;;2.70;1.90;;;;;;;30.33;23.88;99729.06;106556;1248;75370;-72
2023/05/18 08:49:34;;;;;;;5.30;2.00;;;;;;;30.35;23.99;99728.67;106780;1248;68330;-70
2023/05/18 08:52:14;;;;;;;4.40;1.60;;;;;;;30.15;23.72;99725.48;102995;1289;599669;-69
2023/05/18 08:54:41;;;;;;;8.00;1.70;;;;;;;30.08;24.00;99720.03;105001;1263;62225;-71
2023/05/18 08:57:11;;;;;;;5.00;1.90;;;;;;;30.64;23.89;99725.90;105003;1264;61381;-71
2023/05/18 08:59:41;;;;;;;8.60;1.90;;;;;;;31.12;23.27;99723.10;105113;1270;74785;-70
2023/05/18 09:02:08;;;;;;;7.50;1.80;;;;;;;30.82;22.57;99723.02;104991;1270;67540;-73
2023/05/18 09:04:36;;;;;;;4.70;1.90;;;;;;;28.96;24.43;99710.52;105018;1264;74834;-72
2023/05/18 09:07:04;;;;;;;5.20;1.70;;;;;;;28.68;25.82;99699.55;104927;1261;60664;-78
2023/05/18 09:09:31;;;;;;;4.70;2.00;;;;;;;29.70;24.01;99707.65;106130;1256;61261;-71
2023/05/18 09:11:58;;;;;;;4.20;1.80;;;;;;;29.97;24.38;99713.67;105893;1259;73272;-74
2023/05/18 09:14:25;;;;;;;4.30;1.40;;;;;;;30.39;24.01;99714.88;105858;1251;68984;-70
2023/05/18 09:16:53;;;;;;;7.60;1.90;;;;;;;30.40;23.90;99718.51;105979;1251;71482;-70
2023/05/18 09:19:20;;;;;;;5.90;2.20;;;;;;;30.41;23.29;99716.23;105912;1256;59634;-70
2023/05/18 09:21:47;;;;;;;;;;;;;;;30.09;23.55;99720.52;105923;1251;60822;-74
2023/05/18 09:24:14;;;;;;;7.50;1.80;;;;;;;30.25;23.40;99721.79;106155;1251;75376;-69
2023/05/18 09:26:41;;;;;;;4.50;1.90;;;;;;;30.38;23.47;99717.55;106104;1250;70986;-73
2023/05/18 09:29:16;;;;;;;3.50;1.90;;;;;;;30.44;23.19;99727.72;106029;1253;73998;-71
2023/05/18 09:31:45;;;;;;;2.80;1.80;;;;;;;30.52;22.65;99717.90;105835;1251;61331;-68
2023/05/18 09:34:13;;;;;;;4.50;1.70;;;;;;;30.32;22.91;99721.55;105984;1251;61686;-74
2023/05/18 09:36:41;;;;;;;6.00;2.10;;;;;;;30.51;22.16;99725.56;106197;1254;74857;-71
2023/05/18 09:39:10;;;;;;;5.30;1.80;;;;;;;30.54;22.31;99720.20;106066;1250;69239;-71
2023/05/18 09:41:38;;;;;;;2.70;1.90;;;;;;;30.66;22.81;99721.54;105769;1254;72290;-71
2023/05/18 09:44:08;;;;;;;3.80;1.50;;;;;;;30.58;23.10;99716.90;105589;1254;61336;-71
2023/05/18 09:46:36;;;;;;;5.60;1.80;;;;;;;31.06;23.29;99715.00;105790;1254;61222;-72
2023/05/18 09:49:04;;;;;;;5.70;1.80;;;;;;;31.04;22.79;99716.41;105803;1256;72972;-71
2023/05/18 09:51:35;;;;;;;4.00;1.80;;;;;;;30.92;22.62;99722.28;105648;1260;69552;-71
2023/05/18 09:54:05;;;;;;;8.10;2.30;;;;;;;30.81;22.43;99717.94;105641;1261;72823;-71
2023/05/18 09:56:35;;;;;;;4.60;1.70;;;;;;;30.96;22.78;99713.05;105645;1260;59832;-70
2023/05/18 09:59:13;;;;;;;12.00;3.00;;;;;;;31.21;22.49;99710.71;105582;1261;60509;-70
2023/05/18 10:01:55;;;;;;;5.70;1.40;;;;;;;31.73;22.27;99713.36;105767;1260;74753;-72
2023/05/18 10:04:25;;;;;;;10.80;2.30;;;;;;;31.08;22.54;99709.14;105696;1260;67375;-73
2023/05/18 10:06:52;;;;;;;7.80;2.20;;;;;;;30.91;22.39;99716.09;105679;1259;71399;-71
2023/05/18 10:09:19;;;;;;;4.00;2.20;;;;;;;30.96;22.14;99713.36;105602;1256;62532;-72
2023/05/18 10:11:47;;;;;;;6.10;2.30;;;;;;;31.11;21.80;99708.85;105740;1256;60718;-72
2023/05/18 10:14:14;;;;;;;9.60;2.10;;;;;;;30.77;22.61;99708.24;105693;1253;75599;-73
2023/05/18 10:16:41;;;;;;;6.40;1.90;;;;;;;31.20;21.63;99706.98;105846;1256;69301;-72
2023/05/18 10:19:08;;;;;;;;;;;;;;;31.58;21.33;99705.48;105840;1258;73035;-72
2023/05/18 10:21:35;;;;;;;3.00;1.80;;;;;;;31.61;21.54;99700.41;105807;1257;61825;-72
2023/05/18 10:24:03;;;;;;;5.40;1.70;;;;;;;31.91;21.96;99701.27;105881;1259;59569;-74
2023/05/18 10:26:30;;;;;;;2.10;1.70;;;;;;;31.96;21.68;99701.19;105757;1254;74169;-70
2023/05/18 10:28:57;;;;;;;2.00;1.60;;;;;;;31.30;21.50;99702.89;105651;1258;70261;-72
2023/05/18 10:31:24;;;;;;;25.10;2.80;;;;;;;31.64;21.29;99697.95;105901;1253;74952;-73
2023/05/18 10:33:51;;;;;;;11.00;2.00;;;;;;;32.00;21.16;99698.89;106006;1259;60765;-70
2023/05/18 10:36:18;;;;;;;3.80;1.70;;;;;;;31.62;20.55;99694.95;105746;1259;60592;-68
2023/05/18 10:38:46;;;;;;;7.30;2.00;;;;;;;31.31;20.81;99698.96;105839;1252;74098;-71
2023/05/18 10:41:13;;;;;;;4.20;1.60;;;;;;;31.12;21.04;99692.77;105704;1253;70963;-72
2023/05/18 10:43:40;;;;;;;6.60;2.70;;;;;;;31.44;21.09;99705.03;105797;1259;74054;-71
2023/05/18 10:46:07;;;;;;;16.50;2.50;;;;;;;31.61;20.80;99703.19;105831;1254;59738;-72
2023/05/18 10:48:37;;;;;;;2.40;1.80;;;;;;;31.46;20.97;99705.77;105757;1263;59627;-73
2023/05/18 10:51:05;;;;;;;3.50;2.30;;;;;;;31.49;21.12;99700.45;105851;1259;73726;-74
2023/05/18 10:53:33;;;;;;;5.60;2.50;;;;;;;31.36;21.44;99695.65;105887;1253;69774;-73
2023/05/18 10:56:00;;;;;;;5.60;2.30;;;;;;;31.81;21.60;99689.91;105830;1253;74820;-71
2023/05/18 10:58:28;;;;;;;12.40;2.20;;;;;;;31.58;21.21;99692.48;105654;1253;62584;-74
2023/05/18 11:01:00;;;;;;;5.70;2.10;;;;;;;31.99;21.00;99691.69;105907;1253;60730;-70
2023/05/18 11:03:27;;;;;;;8.50;2.10;;;;;;;31.91;20.76;99694.84;105559;1254;71831;-72
2023/05/18 11:06:10;;;;;;;;;;;;;;;32.08;20.67;99697.48;105744;1261;69772;-72
2023/05/18 11:08:48;;;;;;;5.40;2.20;;;;;;;32.63;20.38;99694.30;105807;1258;75114;-74
2023/05/18 11:11:16;;;;;;;3.70;1.90;;;;;;;28.69;23.69;99677.11;105849;1253;61644;-72
2023/05/18 11:13:49;;;;;;;3.30;2.00;;;;;;;28.11;24.28;99676.86;105538;1253;60596;-74
2023/05/18 11:16:18;;;;;;;3.60;1.80;;;;;;;28.40;24.07;99672.27;105920;1257;74921;-73
2023/05/18 11:18:50;;;;;;;5.20;2.10;;;;;;;28.59;24.11;99672.98;106022;1254;67481;-74
2023/05/18 11:21:24;;;;;;;3.90;1.80;;;;;;;28.64;23.53;99664.67;106054;1253;72780;-72
2023/05/18 11:24:13;;;;;;;4.90;1.60;;;;;;;28.30;23.29;99660.76;105917;1259;60580;-71
2023/05/18 11:26:41;;;;;;;4.30;1.70;;;;;;;27.84;24.16;99659.84;105776;1254;62333;-72
2023/05/18 11:29:35;;;;;;;4.40;1.70;;;;;;;27.69;24.17;99663.11;105944;1252;73302;-72
2023/05/18 11:32:03;;;;;;;15.90;2.70;;;;;;;27.50;24.83;99657.58;105267;1260;70040;-71